METAR Data
IDs: Format: Raw Decoded Include TAF

Data at: 1254 UTC 26 Feb 2021

KMWO 261235Z AUTO 05005KT 7SM CLR M02/M04 A3032 RMK AO2 T10151036